Time;durP1;ratioP1;P1;durP2;ratioP2;P2;SDS_P1;SDS_P2;PMS_P1;PMS_P2;Temp;Humidity;BMP_temperature;BMP_pressure;BME280_temperature;BME280_humidity;BME280_pressure;Samples;Min_cycle;Max_cycle;Signal;HPM_P1;HPM_P2
2022/11/05 00:10:29;;;;;;;13.30;4.45;;;6.90;99.90;;;;;;4823390;29;20060;-92
2022/11/05 00:18:25;;;;;;;13.63;3.85;;;7.10;99.90;;;;;;4847398;29;20098;-93
2022/11/05 00:20:51;;;;;;;9.73;3.60;;;7.10;99.90;;;;;;4806738;29;20118;-93
2022/11/05 00:26:06;;;;;;;14.05;4.72;;;7.20;99.90;;;;;;4919746;29;20051;-91
2022/11/05 00:28:32;;;;;;;12.93;7.00;;;7.20;99.90;;;;;;4902110;29;20083;-92
2022/11/05 00:31:03;;;;;;;11.32;4.40;;;7.30;99.90;;;;;;4885314;29;20147;-92
2022/11/05 00:33:29;;;;;;;7.90;4.05;;;7.30;99.90;;;;;;4900996;29;20036;-91
2022/11/05 00:35:55;;;;;;;10.13;3.70;;;7.30;99.90;;;;;;4885448;29;20405;-91
2022/11/05 00:38:20;;;;;;;8.93;3.38;;;7.40;99.90;;;;;;4886561;29;20040;-92
2022/11/05 00:40:46;;;;;;;10.32;4.38;;;7.30;99.90;;;;;;4901584;29;20036;-92
2022/11/05 00:45:55;;;;;;;11.98;4.13;;;7.40;99.90;;;;;;4919814;29;20489;-92
2022/11/05 00:51:06;;;;;;;10.90;3.33;;;7.30;99.90;;;;;;4881992;29;20048;-91
2022/11/05 00:53:32;;;;;;;13.65;6.53;;;7.30;99.90;;;;;;4917500;29;20044;-91
2022/11/05 00:55:57;;;;;;;8.68;3.50;;;7.40;99.90;;;;;;4889751;29;20044;-92
2022/11/05 00:58:23;;;;;;;9.55;3.33;;;7.30;99.90;;;;;;4884667;29;20374;-92
2022/11/05 01:00:54;;;;;;;9.10;3.35;;;7.30;99.90;;;;;;4899472;29;20048;-90
2022/11/05 01:03:23;;;;;;;10.20;3.00;;;7.30;99.90;;;;;;4899679;29;20048;-90
2022/11/05 01:05:51;;;;;;;8.10;3.05;;;7.30;99.90;;;;;;4917726;29;20044;-92
2022/11/05 01:08:19;;;;;;;7.82;3.58;;;7.30;99.90;;;;;;4899729;29;20050;-91
2022/11/05 01:10:49;;;;;;;10.80;5.80;;;7.30;99.90;;;;;;4874905;29;20434;-91
2022/11/05 01:13:18;;;;;;;8.30;3.28;;;7.30;99.90;;;;;;4881547;29;20039;-91
2022/11/05 01:15:44;;;;;;;10.65;6.10;;;7.30;99.90;;;;;;4893087;29;20036;-91
2022/11/05 01:18:10;;;;;;;9.43;3.33;;;7.30;99.90;;;;;;4898224;29;20135;-91
2022/11/05 01:20:36;;;;;;;10.52;3.30;;;7.20;99.90;;;;;;4910454;29;20040;-91
2022/11/05 01:23:02;;;;;;;9.23;3.42;;;7.30;99.90;;;;;;4883546;29;20114;-92
2022/11/05 01:25:28;;;;;;;7.57;2.95;;;7.10;99.90;;;;;;4888759;29;20056;-90
2022/11/05 01:27:54;;;;;;;9.50;3.28;;;7.10;99.90;;;;;;4883911;29;20036;-92
2022/11/05 01:30:20;;;;;;;10.13;5.60;;;7.10;99.90;;;;;;4898659;29;20131;-91
2022/11/05 01:32:46;;;;;;;13.35;3.40;;;7.10;99.90;;;;;;4899620;29;20044;-91
2022/11/05 01:35:14;;;;;;;8.88;2.88;;;7.10;99.90;;;;;;4913904;29;20087;-91
2022/11/05 01:37:40;;;;;;;8.82;3.38;;;7.10;99.90;;;;;;4922170;29;20638;-91
2022/11/05 01:40:07;;;;;;;8.68;3.67;;;7.00;99.90;;;;;;4883209;29;20044;-92
2022/11/05 01:42:33;;;;;;;9.25;4.00;;;7.00;99.90;;;;;;4900258;29;20094;-90
2022/11/05 01:45:13;;;;;;;8.15;2.95;;;7.00;99.90;;;;;;4899381;29;20501;-91
2022/11/05 01:47:47;;;;;;;14.07;6.88;;;7.00;99.90;;;;;;4883551;29;20059;-91
2022/11/05 01:50:28;;;;;;;9.15;3.75;;;7.10;99.90;;;;;;4899587;29;20184;-90
2022/11/05 01:52:59;;;;;;;8.65;3.80;;;7.00;99.90;;;;;;4881282;29;20047;-90
2022/11/05 01:55:30;;;;;;;10.52;3.78;;;7.00;99.90;;;;;;4899304;29;20044;-91
2022/11/05 01:57:59;;;;;;;10.63;3.63;;;6.90;99.90;;;;;;4883242;29;20044;-91
2022/11/05 02:00:26;;;;;;;14.02;4.63;;;6.90;99.90;;;;;;4899589;29;20347;-91
2022/11/05 02:02:52;;;;;;;9.80;4.72;;;6.90;99.90;;;;;;4898760;29;20254;-91
2022/11/05 02:05:18;;;;;;;9.52;3.78;;;6.90;99.90;;;;;;4883792;29;20529;-91
2022/11/05 02:07:46;;;;;;;11.07;3.42;;;6.90;99.90;;;;;;4881922;29;20040;-92
2022/11/05 02:10:13;;;;;;;7.38;3.15;;;6.80;99.90;;;;;;4899055;29;20048;-91
2022/11/05 02:12:42;;;;;;;10.07;4.00;;;6.80;99.90;;;;;;4899526;29;20389;-91
2022/11/05 02:15:22;;;;;;;13.02;4.70;;;6.80;99.90;;;;;;4884070;29;20397;-90
2022/11/05 02:18:14;;;;;;;11.05;3.35;;;6.80;99.90;;;;;;4897989;29;20052;-91
2022/11/05 02:21:16;;;;;;;11.55;4.28;;;6.70;99.90;;;;;;4897291;29;20059;-90
2022/11/05 02:23:53;;;;;;;14.93;8.50;;;6.70;99.90;;;;;;4891427;29;20048;-93
2022/11/05 02:26:48;;;;;;;11.57;4.93;;;6.80;99.90;;;;;;4913460;29;20047;-90
2022/11/05 02:29:38;;;;;;;9.50;4.13;;;6.70;99.90;;;;;;4917888;29;20040;-91
2022/11/05 02:32:19;;;;;;;10.10;4.15;;;6.60;99.90;;;;;;4910511;29;20090;-91
2022/11/05 02:34:59;;;;;;;9.88;3.63;;;6.60;99.90;;;;;;4882608;29;20090;-91
2022/11/05 02:37:44;;;;;;;13.15;3.63;;;6.50;99.90;;;;;;4879931;29;20036;-91
2022/11/05 02:40:22;;;;;;;10.63;4.18;;;6.50;99.90;;;;;;4905514;29;20064;-91
2022/11/05 02:43:02;;;;;;;8.80;3.78;;;6.50;99.90;;;;;;4894407;29;20145;-91
2022/11/05 02:45:50;;;;;;;8.98;3.72;;;6.50;99.90;;;;;;4890576;29;20048;-90
2022/11/05 02:48:42;;;;;;;10.20;4.25;;;6.50;99.90;;;;;;4898226;29;20086;-91
2022/11/05 02:51:26;;;;;;;11.45;4.30;;;6.40;99.90;;;;;;4859402;29;20052;-91
2022/11/05 02:54:21;;;;;;;9.02;3.78;;;6.40;99.90;;;;;;4898320;29;20393;-91
2022/11/05 02:56:50;;;;;;;10.77;3.75;;;6.40;99.90;;;;;;4914778;29;20163;-91
2022/11/05 02:59:16;;;;;;;8.48;3.72;;;6.30;99.90;;;;;;4882995;29;20519;-91
2022/11/05 03:01:44;;;;;;;8.60;4.28;;;6.30;99.90;;;;;;4915336;29;20044;-92
2022/11/05 03:04:12;;;;;;;8.50;4.43;;;6.40;99.90;;;;;;4882760;29;20413;-90
2022/11/05 03:07:20;;;;;;;8.93;3.95;;;6.40;99.90;;;;;;4882622;29;20040;-91
2022/11/05 03:10:25;;;;;;;11.50;4.75;;;6.30;99.90;;;;;;4882397;29;20135;-91
2022/11/05 03:13:16;;;;;;;9.68;4.18;;;6.30;99.90;;;;;;4884535;29;20048;-91
2022/11/05 03:16:01;;;;;;;9.50;3.78;;;6.30;99.90;;;;;;4899818;29;20032;-91
2022/11/05 03:18:26;;;;;;;10.32;4.38;;;6.30;99.90;;;;;;4901212;29;20047;-90
2022/11/05 03:21:03;;;;;;;8.73;3.88;;;6.30;99.90;;;;;;4905149;29;20410;-91
2022/11/05 03:23:38;;;;;;;8.60;3.75;;;6.30;99.90;;;;;;4903214;29;20244;-91
2022/11/05 03:26:11;;;;;;;10.13;4.63;;;6.40;99.90;;;;;;4914578;29;20433;-91
2022/11/05 03:28:41;;;;;;;10.77;4.88;;;6.30;99.90;;;;;;4881780;29;20125;-91
2022/11/05 03:31:12;;;;;;;11.45;4.38;;;6.40;99.90;;;;;;4882035;29;20048;-91
2022/11/05 03:33:40;;;;;;;9.87;3.63;;;6.40;99.90;;;;;;4914554;29;20064;-91
2022/11/05 03:36:12;;;;;;;8.63;3.35;;;6.30;99.90;;;;;;4933057;29;20047;-90
2022/11/05 03:38:40;;;;;;;10.88;4.47;;;6.40;99.90;;;;;;4901130;29;20474;-91
2022/11/05 03:41:10;;;;;;;13.63;4.88;;;6.40;99.90;;;;;;4915291;29;20082;-90
2022/11/05 03:43:41;;;;;;;9.70;4.57;;;6.40;99.90;;;;;;4912904;29;20040;-91
2022/11/05 03:46:13;;;;;;;10.73;4.50;;;6.40;99.90;;;;;;4892962;29;20088;-89
2022/11/05 03:48:44;;;;;;;10.93;5.63;;;6.30;99.90;;;;;;4913034;29;20036;-91
2022/11/05 03:51:57;;;;;;;10.20;4.22;;;6.40;99.90;;;;;;4901144;29;20076;-92
2022/11/05 03:54:23;;;;;;;9.63;3.35;;;6.30;99.90;;;;;;4871059;29;20191;-91
2022/11/05 03:56:48;;;;;;;9.82;3.72;;;6.30;99.90;;;;;;4878788;29;20549;-90
2022/11/05 03:59:16;;;;;;;9.75;4.50;;;6.30;99.90;;;;;;4896613;29;20044;-92
2022/11/05 04:01:41;;;;;;;11.85;4.97;;;6.30;99.90;;;;;;4884938;29;20434;-91
2022/11/05 04:04:08;;;;;;;11.45;4.63;;;6.30;99.90;;;;;;4897233;29;20143;-90
2022/11/05 04:14:47;;;;;;;9.32;4.60;;;6.30;99.90;;;;;;4908106;29;20123;-91
2022/11/05 04:17:13;;;;;;;10.55;4.25;;;6.20;99.90;;;;;;4879809;29;20123;-91
2022/11/05 04:25:16;;;;;;;8.18;4.00;;;6.20;99.90;;;;;;4913286;29;20083;-92
2022/11/05 04:27:43;;;;;;;11.80;4.65;;;6.30;99.90;;;;;;4893723;29;20048;-91
2022/11/05 04:30:18;;;;;;;9.25;3.70;;;6.20;99.90;;;;;;4873259;29;20105;-91
2022/11/05 04:32:57;;;;;;;12.00;4.63;;;6.20;99.90;;;;;;4878403;29;20036;-91
2022/11/05 04:35:23;;;;;;;10.07;4.30;;;6.20;99.90;;;;;;4877701;29;20043;-91
2022/11/05 04:37:49;;;;;;;9.13;3.83;;;6.20;99.90;;;;;;4899059;29;20044;-90
2022/11/05 04:40:15;;;;;;;11.43;4.20;;;6.20;99.90;;;;;;4914488;29;20390;-92
2022/11/05 04:42:40;;;;;;;11.55;4.60;;;6.20;99.90;;;;;;4880415;29;20036;-91
2022/11/05 04:45:06;;;;;;;10.23;4.90;;;6.10;99.90;;;;;;4881395;29;20068;-91
2022/11/05 04:47:31;;;;;;;12.25;4.30;;;6.20;99.90;;;;;;4880575;29;20040;-92
2022/11/05 04:49:57;;;;;;;10.20;4.93;;;6.10;99.90;;;;;;4895367;29;20043;-92
2022/11/05 04:52:23;;;;;;;10.02;4.15;;;6.20;99.90;;;;;;4880457;29;20071;-92
2022/11/05 04:54:48;;;;;;;12.32;4.57;;;6.10;99.90;;;;;;4896673;29;20048;-90
2022/11/05 04:57:14;;;;;;;7.75;3.72;;;6.10;99.90;;;;;;4912023;29;20040;-91
2022/11/05 04:59:40;;;;;;;11.20;4.22;;;6.10;99.90;;;;;;4876275;29;20036;-92
2022/11/05 05:02:05;;;;;;;9.40;4.53;;;6.10;99.90;;;;;;4869680;29;20051;-90
2022/11/05 05:04:31;;;;;;;8.93;3.50;;;6.10;99.90;;;;;;4898725;29;20044;-92
2022/11/05 05:06:57;;;;;;;8.30;3.45;;;6.10;99.90;;;;;;4879121;29;20412;-91
2022/11/05 05:09:22;;;;;;;12.25;7.22;;;6.10;99.90;;;;;;4882721;29;20039;-91
2022/11/05 05:11:48;;;;;;;8.15;3.50;;;6.10;99.90;;;;;;4899210;29;20485;-92
2022/11/05 05:14:14;;;;;;;7.75;3.35;;;6.10;99.90;;;;;;4884132;29;20048;-91
2022/11/05 05:16:39;;;;;;;8.80;3.38;;;6.10;99.90;;;;;;4895173;29;20044;-92
2022/11/05 05:19:05;;;;;;;8.02;3.28;;;6.10;99.90;;;;;;4872219;29;20384;-91
2022/11/05 05:21:40;;;;;;;8.05;3.78;;;6.10;99.90;;;;;;4876959;29;20036;-91
2022/11/05 05:24:14;;;;;;;10.77;4.47;;;6.10;99.90;;;;;;4897433;29;20052;-91
2022/11/05 05:26:43;;;;;;;11.38;3.75;;;6.10;99.90;;;;;;4893629;29;20529;-90
2022/11/05 05:29:10;;;;;;;6.20;2.88;;;6.10;99.90;;;;;;4880340;29;20047;-91
2022/11/05 05:31:35;;;;;;;8.30;3.28;;;6.00;99.90;;;;;;4884810;29;20134;-90
2022/11/05 05:34:01;;;;;;;10.18;3.78;;;6.00;99.90;;;;;;4899188;29;20131;-92
2022/11/05 05:36:28;;;;;;;11.45;3.67;;;6.00;99.90;;;;;;4883656;29;20044;-91
2022/11/05 05:38:53;;;;;;;9.85;3.90;;;6.00;99.90;;;;;;4880701;29;20032;-91
2022/11/05 05:41:19;;;;;;;8.10;3.47;;;6.00;99.90;;;;;;4883169;29;20127;-90
2022/11/05 05:43:45;;;;;;;8.48;3.58;;;5.90;99.90;;;;;;4910804;29;20047;-90
2022/11/05 05:46:13;;;;;;;10.57;3.88;;;5.90;99.90;;;;;;4916522;29;20059;-90
2022/11/05 05:48:39;;;;;;;10.25;3.75;;;5.80;99.90;;;;;;4899662;29;20136;-91
2022/11/05 05:51:10;;;;;;;9.40;3.80;;;5.80;99.90;;;;;;4899281;29;20060;-90
2022/11/05 05:53:36;;;;;;;7.80;3.53;;;5.80;99.90;;;;;;4916574;29;20040;-91
2022/11/05 05:56:03;;;;;;;9.38;3.65;;;5.70;99.90;;;;;;4898342;29;20081;-90
2022/11/05 05:58:38;;;;;;;7.78;2.88;;;5.60;99.90;;;;;;4915783;29;20353;-91
2022/11/05 06:01:06;;;;;;;9.05;4.07;;;5.50;99.90;;;;;;4914280;29;20043;-91
2022/11/05 06:03:32;;;;;;;12.05;4.40;;;5.50;99.90;;;;;;4918609;29;20150;-90
2022/11/05 06:06:03;;;;;;;11.00;4.57;;;5.40;99.90;;;;;;4916554;29;20039;-91
2022/11/05 06:08:29;;;;;;;9.93;3.83;;;5.60;99.90;;;;;;4918507;29;20154;-90
2022/11/05 06:10:55;;;;;;;8.60;3.80;;;5.60;99.90;;;;;;4900740;29;20048;-89
2022/11/05 06:13:21;;;;;;;9.70;3.83;;;5.60;99.90;;;;;;4897043;29;20039;-90
2022/11/05 06:15:46;;;;;;;9.73;4.25;;;5.60;99.90;;;;;;4897191;29;20051;-91
2022/11/05 06:18:12;;;;;;;8.93;3.70;;;5.60;99.90;;;;;;4894555;29;20524;-89
2022/11/05 06:20:38;;;;;;;8.88;4.25;;;5.60;99.90;;;;;;4896315;29;20052;-90
2022/11/05 06:23:04;;;;;;;10.07;3.83;;;5.70;99.90;;;;;;4884422;29;20055;-92
2022/11/05 06:25:30;;;;;;;9.07;4.65;;;5.70;99.90;;;;;;4882918;29;20179;-90
2022/11/05 06:27:55;;;;;;;7.15;3.63;;;5.70;99.90;;;;;;4881991;29;20123;-91
2022/11/05 06:30:22;;;;;;;11.52;4.47;;;5.70;99.90;;;;;;4915030;29;20048;-95
2022/11/05 06:32:48;;;;;;;10.35;4.57;;;5.80;99.90;;;;;;4881210;29;20523;-91
2022/11/05 06:35:13;;;;;;;8.75;4.13;;;5.80;99.90;;;;;;4885791;29;20040;-90
2022/11/05 06:37:39;;;;;;;9.15;3.85;;;5.80;99.90;;;;;;4864196;29;20572;-90
2022/11/05 06:40:06;;;;;;;10.73;4.00;;;5.80;99.90;;;;;;4860916;29;20135;-90
2022/11/05 06:42:32;;;;;;;7.93;3.40;;;5.80;99.90;;;;;;4878122;29;20092;-90
2022/11/05 06:44:57;;;;;;;10.57;4.18;;;5.90;99.90;;;;;;4878738;29;20401;-90
2022/11/05 06:47:23;;;;;;;12.68;4.78;;;5.90;99.90;;;;;;4879019;29;20045;-88
2022/11/05 06:49:48;;;;;;;10.98;4.53;;;5.90;99.90;;;;;;4877565;29;20044;-90
2022/11/05 06:52:15;;;;;;;10.77;5.18;;;5.90;99.90;;;;;;4874972;29;20108;-90
2022/11/05 06:54:42;;;;;;;11.50;4.70;;;5.90;99.90;;;;;;4873867;29;20056;-89
2022/11/05 06:57:09;;;;;;;12.15;4.88;;;5.90;99.90;;;;;;4877863;29;20080;-88
2022/11/05 06:59:35;;;;;;;11.55;4.28;;;5.90;99.90;;;;;;4863121;29;20119;-88
2022/11/05 07:02:02;;;;;;;8.88;3.95;;;5.90;99.90;;;;;;4893401;29;20379;-91
2022/11/05 07:04:28;;;;;;;9.95;4.18;;;5.90;99.90;;;;;;4876272;29;20383;-88
2022/11/05 07:06:53;;;;;;;9.02;3.90;;;5.90;99.90;;;;;;4878291;29;20040;-89
2022/11/05 07:09:19;;;;;;;10.35;4.75;;;5.90;99.90;;;;;;4878316;29;21820;-88
2022/11/05 07:11:44;;;;;;;8.80;3.70;;;5.90;99.90;;;;;;4875101;29;20123;-91
2022/11/05 07:14:10;;;;;;;12.73;4.72;;;6.00;99.90;;;;;;4862113;29;20048;-87
2022/11/05 07:16:35;;;;;;;10.18;4.22;;;6.00;99.90;;;;;;4895134;29;20120;-88
2022/11/05 07:19:01;;;;;;;9.25;4.88;;;6.00;99.90;;;;;;4876668;29;20449;-90
2022/11/05 07:21:28;;;;;;;9.82;4.22;;;6.00;99.90;;;;;;4878638;29;20140;-89
2022/11/05 07:23:53;;;;;;;9.88;4.60;;;6.10;99.90;;;;;;4894915;29;20055;-90
2022/11/05 07:26:19;;;;;;;10.73;5.15;;;6.10;99.90;;;;;;4878040;29;20120;-89
2022/11/05 07:28:44;;;;;;;9.95;4.63;;;6.10;99.90;;;;;;4875559;29;20051;-89
2022/11/05 07:31:10;;;;;;;10.63;5.45;;;6.20;99.90;;;;;;4869896;29;20052;-89
2022/11/05 07:33:36;;;;;;;9.98;4.78;;;6.20;99.90;;;;;;4894623;29;20044;-89
2022/11/05 07:36:01;;;;;;;10.38;4.60;;;6.20;99.90;;;;;;4912893;29;20040;-88
2022/11/05 07:38:27;;;;;;;11.85;5.85;;;6.20;99.90;;;;;;4913742;29;20492;-90
2022/11/05 07:40:52;;;;;;;10.07;5.25;;;6.30;99.90;;;;;;4896535;29;20044;-90
2022/11/05 07:43:18;;;;;;;11.48;5.78;;;6.30;99.90;;;;;;4896939;29;20079;-89
2022/11/05 07:45:45;;;;;;;11.43;4.97;;;6.30;99.90;;;;;;4911845;29;20040;-89
2022/11/05 07:48:11;;;;;;;11.60;4.95;;;6.40;99.90;;;;;;4880607;29;20055;-89
2022/11/05 07:50:37;;;;;;;9.63;4.72;;;6.40;99.90;;;;;;4913988;29;20044;-89
2022/11/05 07:53:05;;;;;;;10.98;5.43;;;6.50;99.90;;;;;;4892174;29;20045;-90
2022/11/05 07:55:31;;;;;;;11.05;5.43;;;6.50;99.90;;;;;;4863634;29;20052;-86
2022/11/05 07:57:57;;;;;;;9.15;5.35;;;6.60;99.90;;;;;;4903046;29;20405;-88
2022/11/05 08:00:24;;;;;;;10.48;5.07;;;6.60;99.90;;;;;;4904078;29;20048;-88
2022/11/05 08:03:01;;;;;;;11.95;4.97;;;6.60;99.90;;;;;;4890012;29;20052;-89
2022/11/05 08:05:28;;;;;;;12.30;6.22;;;6.70;99.90;;;;;;4909346;29;20074;-89
2022/11/05 08:07:55;;;;;;;13.50;6.15;;;6.80;99.90;;;;;;4909917;29;20099;-89
2022/11/05 08:10:22;;;;;;;11.07;5.40;;;6.80;99.90;;;;;;4910233;29;20051;-87
2022/11/05 08:12:48;;;;;;;9.98;5.22;;;6.70;99.90;;;;;;4908825;29;20512;-88
2022/11/05 08:15:13;;;;;;;10.07;4.95;;;6.90;99.90;;;;;;4909782;29;20040;-88
2022/11/05 08:17:40;;;;;;;12.20;6.00;;;7.00;99.90;;;;;;4895938;29;20048;-88
2022/11/05 08:20:06;;;;;;;11.30;6.35;;;7.10;99.90;;;;;;4896737;29;20056;-88
2022/11/05 08:22:32;;;;;;;10.95;5.88;;;7.10;99.90;;;;;;4889746;29;20497;-90
2022/11/05 08:24:58;;;;;;;10.77;5.07;;;7.20;99.90;;;;;;4893130;29;20060;-83
2022/11/05 08:27:23;;;;;;;10.75;6.15;;;7.20;99.90;;;;;;4891248;29;20052;-87
2022/11/05 08:29:49;;;;;;;14.95;6.43;;;7.30;99.90;;;;;;4892250;29;20048;-85
2022/11/05 08:32:15;;;;;;;13.38;8.90;;;7.40;99.90;;;;;;4890634;29;20158;-88
2022/11/05 08:34:41;;;;;;;10.50;6.55;;;7.50;99.90;;;;;;4890319;29;20048;-87
2022/11/05 08:37:06;;;;;;;10.65;6.35;;;7.60;99.90;;;;;;4891066;29;20494;-88
2022/11/05 08:39:32;;;;;;;11.95;6.63;;;7.70;99.90;;;;;;4892547;29;20048;-85
2022/11/05 08:41:58;;;;;;;10.30;6.55;;;7.70;99.90;;;;;;4894932;29;20254;-86
2022/11/05 08:44:23;;;;;;;10.75;6.50;;;7.70;99.90;;;;;;4900437;29;20123;-86
2022/11/05 08:46:49;;;;;;;10.25;5.45;;;7.80;99.90;;;;;;4895403;29;20066;-86
2022/11/05 08:49:15;;;;;;;11.48;5.50;;;7.80;99.90;;;;;;4895266;29;20043;-87
2022/11/05 08:51:43;;;;;;;11.85;6.15;;;7.90;99.90;;;;;;4914041;29;20131;-87
2022/11/05 08:54:09;;;;;;;11.75;8.05;;;8.00;99.90;;;;;;4882834;29;20060;-87
2022/11/05 08:56:34;;;;;;;12.20;8.45;;;8.10;99.90;;;;;;4895769;29;20044;-86
2022/11/05 08:59:00;;;;;;;11.55;5.68;;;8.20;99.90;;;;;;4875320;29;20393;-86
2022/11/05 09:01:25;;;;;;;12.38;7.55;;;8.20;99.90;;;;;;4913263;29;20042;-86
2022/11/05 09:03:51;;;;;;;12.45;7.90;;;8.30;99.90;;;;;;4896671;29;20047;-86
2022/11/05 09:06:19;;;;;;;13.25;9.02;;;8.40;99.90;;;;;;4894742;29;20111;-87
2022/11/05 09:08:45;;;;;;;10.13;5.80;;;8.50;99.90;;;;;;4894898;29;20060;-86
2022/11/05 09:11:11;;;;;;;10.80;5.47;;;8.50;99.90;;;;;;4923438;29;20127;-88
2022/11/05 09:13:37;;;;;;;10.98;4.93;;;8.60;99.90;;;;;;4884110;29;20621;-90
2022/11/05 09:16:03;;;;;;;11.23;5.55;;;8.60;99.90;;;;;;4881297;29;20118;-91
2022/11/05 09:18:28;;;;;;;11.32;5.20;;;8.70;99.90;;;;;;4880168;29;20463;-88
2022/11/05 09:20:54;;;;;;;10.70;6.05;;;8.70;99.90;;;;;;4892933;29;20393;-84
2022/11/05 09:23:19;;;;;;;11.80;8.10;;;8.80;99.90;;;;;;4893832;29;20696;-85
2022/11/05 09:25:46;;;;;;;11.68;6.35;;;8.90;99.90;;;;;;4909279;29;20171;-85
2022/11/05 09:28:17;;;;;;;12.45;7.55;;;8.90;99.90;;;;;;4893785;29;20553;-85
2022/11/05 09:30:43;;;;;;;;;;;9.10;99.90;;;;;;4916286;29;20040;-85
2022/11/05 09:33:10;;;;;;;10.90;7.75;;;9.10;99.90;;;;;;4897100;29;19926;-85
2022/11/05 09:35:39;;;;;;;11.05;7.50;;;9.10;99.90;;;;;;4911265;29;20099;-85
2022/11/05 09:38:05;;;;;;;11.85;8.30;;;9.20;99.90;;;;;;4908891;29;20118;-85
2022/11/05 09:40:48;;;;;;;11.48;7.15;;;9.20;99.90;;;;;;4904256;29;20469;-85
2022/11/05 09:43:19;;;;;;;12.82;8.18;;;9.30;99.90;;;;;;4896523;29;20044;-85
2022/11/05 09:45:47;;;;;;;;;;;9.40;99.90;;;;;;4914380;29;20044;-84
2022/11/05 09:48:16;;;;;;;11.25;7.22;;;9.40;99.90;;;;;;4897931;29;19925;-85
2022/11/05 09:50:44;;;;;;;10.32;6.80;;;9.50;99.90;;;;;;4905411;29;20048;-85
2022/11/05 09:53:18;;;;;;;10.65;7.15;;;9.50;99.90;;;;;;4896633;29;20058;-84
2022/11/05 09:55:50;;;;;;;11.20;6.72;;;9.60;99.90;;;;;;4903303;29;20458;-85
2022/11/05 09:58:39;;;;;;;9.93;6.50;;;9.70;99.90;;;;;;4889243;29;20480;-86
2022/11/05 10:01:13;;;;;;;11.18;6.72;;;9.70;99.90;;;;;;4891270;29;20056;-87
2022/11/05 10:03:47;;;;;;;10.98;6.32;;;9.80;99.90;;;;;;4890814;29;20080;-86
2022/11/05 10:06:19;;;;;;;9.68;5.63;;;9.90;99.90;;;;;;4915120;29;20066;-87
2022/11/05 10:08:50;;;;;;;10.45;6.18;;;10.00;99.90;;;;;;4909966;29;20431;-89
2022/11/05 10:11:23;;;;;;;10.18;5.95;;;10.00;99.90;;;;;;4903940;29;20059;-89
2022/11/05 10:14:21;;;;;;;10.90;6.32;;;10.10;99.90;;;;;;4895885;29;20068;-90
2022/11/05 10:16:55;;;;;;;9.30;5.90;;;10.10;99.90;;;;;;4899164;29;20556;-92
2022/11/05 10:19:29;;;;;;;10.20;6.18;;;10.20;99.90;;;;;;4879256;29;20067;-90
2022/11/05 10:22:08;;;;;;;9.88;5.90;;;10.20;99.90;;;;;;4882245;29;20453;-90
2022/11/05 10:24:33;;;;;;;9.13;5.55;;;10.30;99.90;;;;;;4894758;29;20040;-93
2022/11/05 10:26:59;;;;;;;9.38;5.78;;;10.30;99.90;;;;;;4907136;29;20112;-91
2022/11/05 10:29:29;;;;;;;10.77;5.72;;;10.40;99.90;;;;;;4880803;29;20068;-95
2022/11/05 10:31:57;;;;;;;10.57;5.57;;;10.40;99.90;;;;;;4890091;29;20051;-88
2022/11/05 10:34:30;;;;;;;11.00;5.47;;;10.40;99.90;;;;;;4911878;29;20032;-88
2022/11/05 10:36:56;;;;;;;9.82;5.50;;;10.40;99.90;;;;;;4900922;29;20067;-87
2022/11/05 10:39:24;;;;;;;8.90;5.25;;;10.60;99.90;;;;;;4893455;29;20515;-89
2022/11/05 10:42:13;;;;;;;10.13;4.97;;;10.60;99.90;;;;;;4893009;29;20041;-88
2022/11/05 10:44:56;;;;;;;8.32;4.30;;;10.80;99.90;;;;;;4905574;29;20112;-89
2022/11/05 10:47:46;;;;;;;8.02;4.32;;;10.90;99.90;;;;;;4910402;29;20084;-89
2022/11/05 10:50:15;;;;;;;9.02;4.22;;;10.90;99.90;;;;;;4894550;29;20122;-89
2022/11/05 10:53:03;;;;;;;10.20;4.40;;;11.00;99.90;;;;;;4883188;29;20048;-88
2022/11/05 10:55:33;;;;;;;7.93;4.40;;;11.00;99.90;;;;;;4880668;29;20044;-89
2022/11/05 10:58:12;;;;;;;8.13;4.28;;;11.00;99.90;;;;;;4896644;29;20400;-87
2022/11/05 11:00:38;;;;;;;9.95;4.97;;;11.00;99.90;;;;;;4911901;29;20041;-87
2022/11/05 11:03:24;;;;;;;8.02;4.28;;;11.00;99.90;;;;;;4909096;29;20080;-88
2022/11/05 11:05:58;;;;;;;8.27;4.25;;;11.10;99.90;;;;;;4877523;29;20075;-87
2022/11/05 11:08:24;;;;;;;8.23;4.15;;;11.10;99.90;;;;;;4894708;29;20048;-87
2022/11/05 11:10:58;;;;;;;9.07;4.35;;;11.10;99.90;;;;;;4895280;29;20055;-88
2022/11/05 11:13:47;;;;;;;9.13;4.25;;;11.20;99.90;;;;;;4891372;29;20128;-87
2022/11/05 11:16:15;;;;;;;10.18;4.63;;;11.20;99.90;;;;;;4892818;29;20071;-84
2022/11/05 11:18:42;;;;;;;12.60;4.90;;;11.30;99.90;;;;;;4892620;29;20048;-84
2022/11/05 11:21:18;;;;;;;9.38;4.30;;;11.20;99.90;;;;;;4908825;29;20044;-84
2022/11/05 11:24:05;;;;;;;10.52;4.80;;;11.40;99.90;;;;;;4890080;29;20163;-83
2022/11/05 11:26:34;;;;;;;11.45;4.20;;;11.30;99.90;;;;;;4893344;29;20075;-83
2022/11/05 11:29:24;;;;;;;7.82;3.45;;;11.30;99.90;;;;;;4890666;29;20048;-84
2022/11/05 11:31:54;;;;;;;8.30;3.15;;;11.40;99.90;;;;;;4888201;29;20064;-85
2022/11/05 11:34:30;;;;;;;8.75;3.38;;;11.60;99.90;;;;;;4910210;29;20040;-84
2022/11/05 11:37:08;;;;;;;7.32;2.97;;;11.50;99.90;;;;;;4881595;29;20528;-84
2022/11/05 11:39:35;;;;;;;7.95;3.10;;;11.60;99.90;;;;;;4900487;29;20042;-84
2022/11/05 11:42:11;;;;;;;7.20;3.00;;;11.60;99.90;;;;;;4908216;29;20044;-86
2022/11/05 11:44:43;;;;;;;7.53;3.30;;;11.70;99.90;;;;;;4880603;29;20054;-85
2022/11/05 11:47:12;;;;;;;8.35;3.20;;;11.70;99.90;;;;;;4906435;29;20389;-85
2022/11/05 11:49:58;;;;;;;6.85;3.10;;;11.80;99.90;;;;;;4890635;29;20060;-84
2022/11/05 11:52:29;;;;;;;7.57;2.60;;;11.80;99.90;;;;;;5390654;23;21013;-91
2022/11/05 11:55:19;;;;;;;7.95;2.95;;;11.80;99.90;;;;;;4873170;29;20060;-85
2022/11/05 11:57:51;;;;;;;7.57;2.63;;;11.90;99.90;;;;;;4871170;29;20049;-84
2022/11/05 12:00:18;;;;;;;7.57;2.90;;;11.90;99.90;;;;;;4896320;29;20405;-85
2022/11/05 12:03:03;;;;;;;6.15;2.70;;;11.90;99.90;;;;;;4884108;29;20059;-85
2022/11/05 12:06:01;;;;;;;7.32;2.80;;;11.90;99.90;;;;;;4879364;29;20076;-85
2022/11/05 12:08:32;;;;;;;6.97;2.75;;;11.80;99.90;;;;;;4867569;29;20186;-85
2022/11/05 12:11:07;;;;;;;8.15;2.83;;;11.80;99.90;;;;;;4894200;29;20036;-84
2022/11/05 12:14:03;;;;;;;7.63;2.92;;;11.90;99.90;;;;;;4877351;29;20088;-84
2022/11/05 12:16:44;;;;;;;7.95;3.30;;;11.80;99.90;;;;;;4894228;29;20076;-85
2022/11/05 12:19:36;;;;;;;7.95;3.35;;;11.80;99.90;;;;;;4878560;29;20505;-85
2022/11/05 12:22:19;;;;;;;8.98;3.58;;;11.70;99.90;;;;;;4865126;29;20151;-85
2022/11/05 12:25:06;;;;;;;8.65;3.28;;;11.70;99.90;;;;;;4898221;29;20037;-85
2022/11/05 12:28:14;;;;;;;9.48;3.47;;;11.70;99.90;;;;;;4881029;29;20052;-86
2022/11/05 12:30:49;;;;;;;8.88;3.50;;;11.60;99.90;;;;;;4898749;29;20044;-85
2022/11/05 12:33:41;;;;;;;7.15;3.38;;;11.60;99.90;;;;;;4896253;29;20446;-86
2022/11/05 12:36:22;;;;;;;8.05;3.80;;;11.60;99.90;;;;;;4899298;29;20044;-87
2022/11/05 12:39:23;;;;;;;8.38;3.80;;;11.60;99.90;;;;;;4877467;29;20080;-87
2022/11/05 12:42:14;;;;;;;10.38;4.30;;;11.60;99.90;;;;;;4880031;29;20060;-86
2022/11/05 12:45:15;;;;;;;10.20;5.05;;;11.70;99.90;;;;;;4854202;29;20245;-86
2022/11/05 12:47:47;;;;;;;8.80;4.00;;;11.70;99.90;;;;;;4869896;29;20441;-86
2022/11/05 12:50:33;;;;;;;10.00;4.10;;;11.60;99.90;;;;;;4891773;29;20768;-86
2022/11/05 12:53:25;;;;;;;10.30;4.88;;;11.70;99.90;;;;;;4879810;29;20409;-86
2022/11/05 12:55:52;;;;;;;8.65;4.70;;;11.70;99.90;;;;;;4882585;29;20086;-86
2022/11/05 12:58:30;;;;;;;9.98;4.65;;;11.80;99.90;;;;;;4895649;29;20044;-85
2022/11/05 13:01:07;;;;;;;9.73;4.40;;;11.80;99.90;;;;;;4899401;29;20073;-86
2022/11/05 13:03:54;;;;;;;10.20;5.30;;;11.80;99.90;;;;;;4881526;29;20045;-86
2022/11/05 13:06:31;;;;;;;11.25;5.18;;;11.80;99.90;;;;;;4878883;29;20057;-86
2022/11/05 13:09:35;;;;;;;8.80;4.72;;;11.80;99.90;;;;;;4894568;29;20124;-86
2022/11/05 13:12:09;;;;;;;10.30;4.70;;;11.90;99.90;;;;;;4894518;29;20127;-84
2022/11/05 13:14:44;;;;;;;9.63;4.75;;;11.80;99.90;;;;;;4869216;29;20041;-86
2022/11/05 13:17:23;;;;;;;10.65;4.95;;;11.90;99.90;;;;;;4870842;29;20045;-86
2022/11/05 13:19:56;;;;;;;7.25;4.53;;;11.90;99.90;;;;;;4879536;29;20508;-85
2022/11/05 13:22:49;;;;;;;9.68;5.18;;;11.90;99.90;;;;;;4893188;29;20047;-86
2022/11/05 13:25:20;;;;;;;10.10;5.18;;;11.90;99.90;;;;;;4884473;29;20413;-86
2022/11/05 13:28:04;;;;;;;8.53;5.17;;;12.00;99.90;;;;;;4876464;29;20048;-86
2022/11/05 13:30:36;;;;;;;9.68;5.32;;;12.00;99.90;;;;;;4875949;29;20705;-86
2022/11/05 13:33:09;;;;;;;12.00;5.88;;;12.00;99.90;;;;;;4879880;29;20051;-88
2022/11/05 13:38:58;;;;;;;9.80;5.25;;;12.00;99.90;;;;;;4880410;29;20064;-86
2022/11/05 13:38:58;;;;;;;10.48;6.07;;;12.00;99.90;;;;;;4893915;29;20076;-87
2022/11/05 13:41:48;;;;;;;9.95;6.15;;;11.90;99.90;;;;;;4881711;29;20079;-86
2022/11/05 13:44:32;;;;;;;10.73;6.50;;;11.90;99.90;;;;;;4877843;29;20065;-88
2022/11/05 13:47:03;;;;;;;10.52;6.03;;;11.90;99.90;;;;;;4876634;29;20515;-87
2022/11/05 13:49:50;;;;;;;12.10;6.28;;;11.80;99.90;;;;;;4893274;29;20041;-87
2022/11/05 13:52:34;;;;;;;12.55;6.50;;;11.80;99.90;;;;;;4895935;29;20180;-88